createdAt,value
2017-01-04T00:00:34.733Z,0
2017-01-04T00:01:34.542Z,0
2017-01-04T00:02:34.495Z,0
2017-01-04T00:03:34.691Z,0
2017-01-04T00:04:34.749Z,0
2017-01-04T00:05:34.520Z,0
2017-01-04T00:06:34.608Z,0
2017-01-04T00:07:34.649Z,0
2017-01-04T00:08:34.556Z,0
2017-01-04T00:09:34.879Z,0
2017-01-04T00:10:34.787Z,0
2017-01-04T00:11:34.617Z,0
2017-01-04T00:12:34.718Z,0
2017-01-04T00:13:34.634Z,0
2017-01-04T00:14:34.657Z,0
2017-01-04T00:15:34.605Z,0
2017-01-04T00:16:34.598Z,0
2017-01-04T00:17:34.561Z,0
2017-01-04T00:18:34.711Z,0
2017-01-04T00:19:34.600Z,0
2017-01-04T00:20:34.608Z,0
2017-01-04T00:21:34.568Z,0
2017-01-04T00:22:34.627Z,0
2017-01-04T00:23:34.631Z,0
2017-01-04T00:24:34.584Z,0
2017-01-04T00:25:34.785Z,0
2017-01-04T00:26:34.627Z,0
2017-01-04T00:27:34.519Z,0
2017-01-04T00:28:34.555Z,0
2017-01-04T00:29:34.560Z,0
2017-01-04T00:30:34.735Z,0
2017-01-04T00:31:34.791Z,0
2017-01-04T00:32:34.777Z,0
2017-01-04T00:33:34.501Z,0
2017-01-04T00:34:35.042Z,0
2017-01-04T00:35:34.547Z,0
2017-01-04T00:36:36.469Z,0
2017-01-04T00:37:34.628Z,0
2017-01-04T00:38:34.589Z,0
2017-01-04T00:39:34.658Z,0
2017-01-04T00:40:34.707Z,0
2017-01-04T00:41:34.618Z,0
2017-01-04T00:42:34.576Z,0
2017-01-04T00:43:34.655Z,0
2017-01-04T00:44:35.268Z,0
2017-01-04T00:45:34.711Z,0
2017-01-04T00:46:34.688Z,0
2017-01-04T00:47:34.674Z,0
2017-01-04T00:48:34.686Z,0
2017-01-04T00:49:34.646Z,0
2017-01-04T00:50:34.661Z,0
2017-01-04T00:51:34.574Z,0
2017-01-04T00:52:36.707Z,0
2017-01-04T00:53:34.582Z,0
2017-01-04T00:54:34.878Z,0
2017-01-04T00:55:34.737Z,0
2017-01-04T00:56:34.558Z,0
2017-01-04T00:57:34.546Z,0
2017-01-04T00:58:34.535Z,0
2017-01-04T00:59:34.641Z,0
2017-01-04T01:00:34.529Z,0
2017-01-04T01:01:34.898Z,0
2017-01-04T01:02:34.627Z,0
2017-01-04T01:03:34.678Z,0
2017-01-04T01:04:44.544Z,0
2017-01-04T01:05:34.773Z,0
2017-01-04T01:06:34.672Z,0
2017-01-04T01:07:34.648Z,0
2017-01-04T01:08:34.578Z,0
2017-01-04T01:09:34.636Z,0
2017-01-04T01:10:34.755Z,0
2017-01-04T01:11:34.806Z,0
2017-01-04T01:12:34.623Z,0
2017-01-04T01:13:34.642Z,0
2017-01-04T01:14:34.581Z,0
2017-01-04T01:15:34.726Z,0
2017-01-04T01:16:34.664Z,0
2017-01-04T01:17:34.757Z,0
2017-01-04T01:18:35.193Z,0
2017-01-04T01:19:34.708Z,0
2017-01-04T01:20:34.656Z,0
2017-01-04T01:21:34.654Z,0
2017-01-04T01:22:34.639Z,0
2017-01-04T01:23:34.734Z,0
2017-01-04T01:24:34.817Z,0
2017-01-04T01:25:34.701Z,0
2017-01-04T01:26:34.612Z,0
2017-01-04T01:27:34.703Z,0
2017-01-04T01:28:34.656Z,0
2017-01-04T01:29:34.599Z,0
2017-01-04T01:30:34.867Z,0
2017-01-04T01:31:34.775Z,0
2017-01-04T01:32:34.724Z,0
2017-01-04T01:33:34.766Z,0
2017-01-04T01:34:34.702Z,0
2017-01-04T01:35:34.725Z,0
2017-01-04T01:36:34.790Z,0
2017-01-04T01:37:34.623Z,0
2017-01-04T01:38:34.734Z,0
2017-01-04T01:39:34.669Z,0
2017-01-04T01:40:34.583Z,0
2017-01-04T01:41:34.586Z,0
2017-01-04T01:42:34.825Z,0
2017-01-04T01:43:34.699Z,0
2017-01-04T01:44:34.692Z,0
2017-01-04T01:45:34.785Z,0
2017-01-04T01:46:34.673Z,0
2017-01-04T01:47:34.775Z,0
2017-01-04T01:48:34.764Z,0
2017-01-04T01:49:34.735Z,0
2017-01-04T01:50:34.795Z,0
2017-01-04T01:51:34.666Z,0
2017-01-04T01:52:34.691Z,0
2017-01-04T01:53:34.642Z,0
2017-01-04T01:54:34.744Z,0
2017-01-04T01:55:34.763Z,0
2017-01-04T01:56:34.764Z,0
2017-01-04T01:57:34.834Z,0
2017-01-04T01:58:34.929Z,0
2017-01-04T01:59:34.701Z,0
2017-01-04T02:00:37.552Z,0
2017-01-04T02:01:34.772Z,0
2017-01-04T02:02:34.612Z,0
2017-01-04T02:03:34.915Z,0
2017-01-04T02:04:34.734Z,0
2017-01-04T02:05:34.697Z,0
2017-01-04T02:10:52.134Z,0
2017-01-04T02:11:06.784Z,0
2017-01-04T02:12:06.300Z,0
2017-01-04T02:13:07.172Z,0
2017-01-04T02:14:06.594Z,0
2017-01-04T02:15:06.063Z,0
2017-01-04T02:16:05.541Z,0
2017-01-04T02:17:05.038Z,0
2017-01-04T02:18:05.373Z,0
2017-01-04T02:19:03.824Z,0
2017-01-04T02:20:03.854Z,0
2017-01-04T02:21:03.841Z,0
2017-01-04T02:22:03.854Z,0
2017-01-04T02:23:03.631Z,0
2017-01-04T02:24:03.711Z,0
2017-01-04T02:25:03.753Z,0
2017-01-04T02:26:03.722Z,0
2017-01-04T02:27:03.942Z,0
2017-01-04T02:28:03.792Z,0
2017-01-04T02:29:03.743Z,0
2017-01-04T02:30:03.732Z,0
2017-01-04T02:31:03.771Z,0
2017-01-04T02:32:03.660Z,0
2017-01-04T02:33:03.732Z,0
2017-01-04T02:34:03.723Z,0
2017-01-04T02:35:03.736Z,0
2017-01-04T02:36:03.751Z,0
2017-01-04T02:37:03.781Z,0
2017-01-04T02:38:03.852Z,0
2017-01-04T02:39:03.914Z,0
2017-01-04T02:40:03.802Z,0
2017-01-04T02:41:03.788Z,0
2017-01-04T02:42:03.763Z,0
2017-01-04T02:43:03.852Z,0
2017-01-04T02:44:03.905Z,0
2017-01-04T02:45:03.735Z,0
2017-01-04T02:46:03.890Z,0
2017-01-04T02:47:03.811Z,0
2017-01-04T02:48:03.850Z,0
2017-01-04T02:49:03.901Z,0
2017-01-04T02:50:03.841Z,0
2017-01-04T02:51:03.768Z,0
2017-01-04T02:52:03.819Z,0
2017-01-04T02:53:03.722Z,0
2017-01-04T02:54:03.758Z,0
2017-01-04T02:55:03.841Z,0
2017-01-04T02:56:03.802Z,0
2017-01-04T02:57:03.811Z,0
2017-01-04T02:58:03.760Z,0
2017-01-04T02:59:03.900Z,0
2017-01-04T03:00:03.691Z,0
2017-01-04T03:01:03.830Z,0
2017-01-04T03:02:03.940Z,0
2017-01-04T03:03:03.739Z,0
2017-01-04T03:04:03.790Z,0
2017-01-04T03:05:03.762Z,0
2017-01-04T03:06:03.786Z,0
2017-01-04T03:07:03.841Z,0
2017-01-04T03:08:03.929Z,0
2017-01-04T03:09:03.760Z,0
2017-01-04T03:10:03.921Z,0
2017-01-04T03:11:03.881Z,0
2017-01-04T03:12:03.776Z,0
2017-01-04T03:13:03.767Z,0
2017-01-04T03:14:03.836Z,0
2017-01-04T03:15:03.727Z,0
2017-01-04T03:16:03.776Z,0
2017-01-04T03:17:03.778Z,0
2017-01-04T03:18:03.780Z,0
2017-01-04T03:19:03.908Z,0
2017-01-04T03:20:03.879Z,0
2017-01-04T03:21:03.842Z,0
2017-01-04T03:22:03.853Z,0
2017-01-04T03:23:03.955Z,0
2017-01-04T03:24:03.807Z,0
2017-01-04T03:25:03.797Z,0
2017-01-04T03:26:03.914Z,0
2017-01-04T03:27:03.738Z,0
2017-01-04T03:28:03.869Z,0
2017-01-04T03:29:03.818Z,0
2017-01-04T03:30:03.845Z,0
2017-01-04T03:31:03.893Z,0
2017-01-04T03:32:03.954Z,0
2017-01-04T03:33:03.841Z,0
2017-01-04T03:34:03.832Z,0
2017-01-04T03:35:03.799Z,0
2017-01-04T03:36:03.921Z,0
2017-01-04T03:37:03.887Z,0
2017-01-04T03:38:03.899Z,0
2017-01-04T03:39:03.888Z,0
2017-01-04T03:40:03.871Z,0
2017-01-04T03:41:03.797Z,0
2017-01-04T03:42:03.940Z,0
2017-01-04T03:43:03.807Z,0
2017-01-04T03:44:13.827Z,0
2017-01-04T03:45:03.821Z,0
2017-01-04T03:46:03.888Z,0
2017-01-04T03:47:03.908Z,0
2017-01-04T03:48:03.918Z,0
2017-01-04T03:51:11.215Z,0
2017-01-04T03:51:22.988Z,0
2017-01-04T03:52:22.665Z,0
2017-01-04T03:53:25.406Z,0
2017-01-04T03:54:22.823Z,0
2017-01-04T03:55:22.857Z,0
2017-01-04T03:56:22.918Z,0
2017-01-04T03:57:22.829Z,0
2017-01-04T03:58:22.779Z,0
2017-01-04T03:59:22.875Z,0
2017-01-04T04:00:22.747Z,0
2017-01-04T04:01:26.339Z,0
2017-01-04T04:02:22.755Z,0
2017-01-04T04:03:22.939Z,0
2017-01-04T04:04:22.778Z,0
2017-01-04T04:05:22.765Z,0
2017-01-04T04:06:22.764Z,0
2017-01-04T04:07:23.837Z,0
2017-01-04T04:08:22.943Z,0
2017-01-04T04:09:22.736Z,0
2017-01-04T04:10:23.015Z,0
2017-01-04T04:11:22.910Z,0
2017-01-04T04:12:23.034Z,0
2017-01-04T04:13:22.815Z,0
2017-01-04T04:14:22.793Z,0
2017-01-04T04:15:22.881Z,0
2017-01-04T04:16:22.980Z,0
2017-01-04T04:17:22.895Z,0
2017-01-04T04:18:22.765Z,0
2017-01-04T04:19:22.828Z,0
2017-01-04T04:20:22.841Z,0
2017-01-04T04:21:22.879Z,0
2017-01-04T04:22:22.866Z,0
2017-01-04T04:23:22.911Z,0
2017-01-04T04:24:22.776Z,0
2017-01-04T04:25:22.734Z,0
2017-01-04T04:26:22.974Z,0
2017-01-04T04:27:23.852Z,0
2017-01-04T04:28:22.749Z,0
2017-01-04T04:29:22.836Z,0
2017-01-04T04:30:25.725Z,0
2017-01-04T04:31:22.916Z,0
2017-01-04T04:32:22.810Z,0
2017-01-04T04:33:22.871Z,0
2017-01-04T04:34:22.974Z,0
2017-01-04T04:35:22.895Z,0
2017-01-04T04:36:22.935Z,0
2017-01-04T04:37:22.794Z,0
2017-01-04T04:38:22.995Z,0
2017-01-04T04:39:22.826Z,0
2017-01-04T04:40:22.967Z,0
2017-01-04T04:41:23.131Z,0
2017-01-04T04:42:22.944Z,0
2017-01-04T04:43:22.851Z,0
2017-01-04T04:44:22.935Z,0
2017-01-04T04:45:22.827Z,0
2017-01-04T04:46:23.034Z,0
2017-01-04T04:47:22.794Z,0
2017-01-04T04:48:23.435Z,0
2017-01-04T04:49:22.894Z,0
2017-01-04T04:50:22.964Z,0
2017-01-04T04:51:22.871Z,0
2017-01-04T04:52:22.916Z,0
2017-01-04T04:53:23.495Z,0
2017-01-04T04:54:22.914Z,0
2017-01-04T04:55:24.324Z,0
2017-01-04T04:56:22.951Z,0
2017-01-04T04:57:22.904Z,0
2017-01-04T04:58:23.022Z,0
2017-01-04T04:59:22.896Z,0
2017-01-04T05:00:23.046Z,0
2017-01-04T05:01:22.883Z,0
2017-01-04T05:02:22.973Z,0
2017-01-04T05:03:23.212Z,0
2017-01-04T05:04:23.010Z,0
2017-01-04T05:05:22.942Z,0
2017-01-04T05:06:23.553Z,0
2017-01-04T05:07:22.873Z,0
2017-01-04T05:08:22.808Z,0
2017-01-04T05:09:22.993Z,0
2017-01-04T05:10:23.751Z,0
2017-01-04T05:11:23.135Z,0
2017-01-04T05:12:22.889Z,0
2017-01-04T05:17:41.055Z,0
2017-01-04T05:17:52.638Z,0
2017-01-04T05:18:52.717Z,0
2017-01-04T05:19:52.635Z,0
2017-01-04T05:20:52.611Z,0
2017-01-04T05:21:52.600Z,0
2017-01-04T05:22:52.631Z,0
2017-01-04T05:23:52.522Z,0
2017-01-04T05:24:52.793Z,0
2017-01-04T05:25:52.641Z,0
2017-01-04T05:26:52.591Z,0
2017-01-04T05:27:52.671Z,0
2017-01-04T05:33:10.997Z,0
2017-01-04T05:33:22.589Z,0
2017-01-04T05:34:22.650Z,0
2017-01-04T05:35:22.637Z,0
2017-01-04T05:36:22.550Z,0
2017-01-04T05:37:22.653Z,0
2017-01-04T05:38:22.701Z,0
2017-01-04T05:39:22.589Z,0
2017-01-04T05:40:22.470Z,0
2017-01-04T05:41:22.791Z,0
2017-01-04T05:42:22.585Z,0
2017-01-04T05:43:22.642Z,0
2017-01-04T05:44:22.689Z,0
2017-01-04T05:45:22.545Z,0
2017-01-04T05:46:22.718Z,0
2017-01-04T05:47:23.161Z,0
2017-01-04T05:48:22.597Z,0
2017-01-04T05:49:23.041Z,0
2017-01-04T05:50:22.858Z,0
2017-01-04T05:51:25.333Z,0
2017-01-04T05:52:22.537Z,0
2017-01-04T05:53:22.727Z,0
2017-01-04T05:54:22.573Z,0
2017-01-04T05:55:22.641Z,0
2017-01-04T05:56:22.600Z,0
2017-01-04T05:57:23.505Z,0
2017-01-04T05:58:22.656Z,0
2017-01-04T05:59:22.768Z,0
2017-01-04T06:00:22.617Z,0
2017-01-04T06:01:22.687Z,0
2017-01-04T06:02:22.770Z,0
2017-01-04T06:03:22.703Z,0
2017-01-04T06:04:22.585Z,0
2017-01-04T06:05:22.784Z,0
2017-01-04T06:06:22.667Z,0
2017-01-04T06:07:22.687Z,0
2017-01-04T06:08:22.610Z,0
2017-01-04T06:09:22.733Z,0
2017-01-04T06:10:22.713Z,0
2017-01-04T06:11:22.836Z,0
2017-01-04T06:12:22.683Z,0
2017-01-04T06:13:22.587Z,0
2017-01-04T06:14:22.660Z,0
2017-01-04T06:15:22.638Z,0
2017-01-04T06:16:22.575Z,0
2017-01-04T06:17:22.652Z,0
2017-01-04T06:18:22.682Z,0
2017-01-04T06:19:22.609Z,0
2017-01-04T06:20:22.605Z,0
2017-01-04T06:21:32.740Z,0
2017-01-04T06:22:24.347Z,0
2017-01-04T06:23:22.792Z,0
2017-01-04T06:24:22.671Z,0
2017-01-04T06:25:22.607Z,0
2017-01-04T06:26:22.910Z,0
2017-01-04T06:27:22.559Z,0
2017-01-04T06:28:22.637Z,0
2017-01-04T06:29:23.418Z,0
2017-01-04T06:30:22.666Z,0
2017-01-04T06:31:22.781Z,0
2017-01-04T06:32:22.630Z,0
2017-01-04T06:33:22.725Z,0
2017-01-04T06:34:22.705Z,0
2017-01-04T06:35:22.690Z,0
2017-01-04T06:36:22.666Z,0
2017-01-04T06:37:22.626Z,0
2017-01-04T06:38:22.707Z,0
2017-01-04T06:39:22.628Z,0
2017-01-04T06:40:22.757Z,0
2017-01-04T06:41:22.596Z,0
2017-01-04T06:42:22.657Z,0
2017-01-04T06:43:22.797Z,0
2017-01-04T06:44:22.629Z,0
2017-01-04T06:45:22.627Z,0
2017-01-04T06:46:22.607Z,0
2017-01-04T06:47:22.726Z,0
2017-01-04T06:48:22.609Z,0
2017-01-04T06:49:22.638Z,0
2017-01-04T06:50:22.684Z,0
2017-01-04T06:51:22.803Z,0
2017-01-04T06:52:22.655Z,0
2017-01-04T06:53:22.611Z,0
2017-01-04T06:54:22.669Z,0
2017-01-04T06:55:22.596Z,0
2017-01-04T06:56:22.716Z,0
2017-01-04T06:57:22.611Z,0
2017-01-04T06:58:23.426Z,0
2017-01-04T06:59:22.718Z,0
2017-01-04T07:00:22.807Z,0
2017-01-04T07:01:22.744Z,0
2017-01-04T07:02:22.830Z,0
2017-01-04T07:03:22.867Z,0
2017-01-04T07:04:22.613Z,0
2017-01-04T07:05:22.738Z,0
2017-01-04T07:06:22.742Z,0
2017-01-04T07:07:22.861Z,0
2017-01-04T07:08:22.762Z,0
2017-01-04T07:09:22.748Z,0
2017-01-04T07:10:22.644Z,0
2017-01-04T07:11:22.660Z,0
2017-01-04T07:12:22.641Z,0
2017-01-04T07:13:22.808Z,0
2017-01-04T07:14:22.721Z,0
2017-01-04T07:15:22.752Z,0
2017-01-04T07:16:22.800Z,0
2017-01-04T07:17:22.670Z,0
2017-01-04T07:18:22.807Z,0
2017-01-04T07:19:22.750Z,0
2017-01-04T07:20:22.820Z,0
2017-01-04T07:21:22.737Z,0
2017-01-04T07:22:22.693Z,0
2017-01-04T07:23:22.800Z,0
2017-01-04T07:24:22.664Z,0
2017-01-04T07:25:22.763Z,0
2017-01-04T07:26:22.678Z,0
2017-01-04T07:27:22.739Z,0
2017-01-04T07:28:22.809Z,0
2017-01-04T07:29:22.699Z,0
2017-01-04T07:30:22.879Z,0
2017-01-04T07:31:22.682Z,0
2017-01-04T07:32:22.697Z,0
2017-01-04T07:33:22.775Z,0
2017-01-04T07:34:25.556Z,0
2017-01-04T07:35:22.655Z,0
2017-01-04T07:36:22.781Z,0
2017-01-04T07:37:22.834Z,0
2017-01-04T07:38:22.654Z,0
2017-01-04T07:39:22.795Z,0
2017-01-04T07:40:22.693Z,5
2017-01-04T07:41:22.832Z,5
2017-01-04T07:42:22.802Z,5
2017-01-04T07:43:22.783Z,5
2017-01-04T07:44:24.755Z,5
2017-01-04T07:45:22.790Z,5
2017-01-04T07:46:22.822Z,10
2017-01-04T07:47:22.777Z,10
2017-01-04T07:48:22.853Z,10
2017-01-04T07:49:22.870Z,10
2017-01-04T07:50:23.038Z,10
2017-01-04T07:51:22.880Z,15
2017-01-04T07:52:22.674Z,15
2017-01-04T07:53:22.839Z,15
2017-01-04T07:54:23.778Z,15
2017-01-04T07:55:22.747Z,15
2017-01-04T07:56:23.075Z,20
2017-01-04T07:57:22.858Z,25
2017-01-04T07:58:23.372Z,25
2017-01-04T07:59:22.725Z,25
2017-01-04T08:00:22.872Z,25
2017-01-04T08:01:22.916Z,30
2017-01-04T08:02:22.839Z,30
2017-01-04T08:03:22.823Z,30
2017-01-04T08:04:22.985Z,30
2017-01-04T08:05:22.979Z,30
2017-01-04T08:06:23.005Z,40
2017-01-04T08:07:22.903Z,40
2017-01-04T08:08:22.827Z,40
2017-01-04T08:09:22.901Z,45
2017-01-04T08:10:22.898Z,50
2017-01-04T08:11:22.862Z,55
2017-01-04T08:12:23.174Z,60
2017-01-04T08:13:22.862Z,55
2017-01-04T08:14:22.822Z,55
2017-01-04T08:15:22.705Z,60
2017-01-04T08:16:22.792Z,70
2017-01-04T08:17:22.904Z,70
2017-01-04T08:18:22.864Z,70
2017-01-04T08:19:22.855Z,75
2017-01-04T08:20:23.370Z,75
2017-01-04T08:21:22.819Z,80
2017-01-04T08:22:22.836Z,85
2017-01-04T08:23:22.770Z,90
2017-01-04T08:24:22.765Z,90
2017-01-04T08:25:22.779Z,95
2017-01-04T08:26:23.044Z,95
2017-01-04T08:27:22.961Z,95
2017-01-04T08:28:22.913Z,95
2017-01-04T08:29:22.875Z,95
2017-01-04T08:30:22.743Z,100
2017-01-04T08:31:22.804Z,100
2017-01-04T08:32:22.794Z,90
2017-01-04T08:33:22.851Z,95
2017-01-04T08:34:22.854Z,110
2017-01-04T08:35:22.889Z,120
2017-01-04T08:36:22.770Z,125
2017-01-04T08:37:22.896Z,130
2017-01-04T08:38:22.995Z,135
2017-01-04T08:39:22.810Z,135
2017-01-04T08:40:22.962Z,140
2017-01-04T08:41:22.900Z,145
2017-01-04T08:42:22.830Z,145
2017-01-04T08:43:23.063Z,150
2017-01-04T08:44:23.574Z,155
2017-01-04T08:45:23.303Z,155
2017-01-04T08:46:22.769Z,160
2017-01-04T08:47:22.900Z,160
2017-01-04T08:48:23.183Z,160
2017-01-04T08:49:22.888Z,160
2017-01-04T08:50:22.857Z,160
2017-01-04T08:51:22.920Z,165
2017-01-04T08:52:23.565Z,170
2017-01-04T08:53:22.914Z,175
2017-01-04T08:54:22.842Z,175
2017-01-04T08:55:22.988Z,180
2017-01-04T08:56:22.898Z,180
2017-01-04T08:57:23.122Z,180
2017-01-04T08:58:22.942Z,180
2017-01-04T08:59:22.939Z,175
2017-01-04T09:00:22.795Z,175
2017-01-04T09:01:22.917Z,175
2017-01-04T09:02:22.826Z,175
2017-01-04T09:03:22.903Z,175
2017-01-04T09:04:22.892Z,175
2017-01-04T09:05:22.831Z,180
2017-01-04T09:06:22.912Z,185
2017-01-04T09:07:22.962Z,195
2017-01-04T09:08:24.009Z,200
2017-01-04T09:09:22.945Z,215
2017-01-04T09:10:22.999Z,225
2017-01-04T09:11:22.990Z,225
2017-01-04T09:12:22.929Z,230
2017-01-04T09:13:22.815Z,240
2017-01-04T09:14:22.903Z,240
2017-01-04T09:15:22.891Z,235
2017-01-04T09:16:22.902Z,240
2017-01-04T09:17:22.807Z,250
2017-01-04T09:18:22.979Z,255
2017-01-04T09:19:22.947Z,265
2017-01-04T09:20:23.020Z,270
2017-01-04T09:21:23.022Z,285
2017-01-04T09:22:22.904Z,325
2017-01-04T09:23:22.932Z,365
2017-01-04T09:24:22.963Z,365
2017-01-04T09:25:22.973Z,265
2017-01-04T09:26:22.847Z,160
2017-01-04T09:27:23.972Z,140
2017-01-04T09:28:22.976Z,140
2017-01-04T09:29:22.816Z,155
2017-01-04T09:30:22.939Z,180
2017-01-04T09:31:22.904Z,200
2017-01-04T09:32:22.964Z,230
2017-01-04T09:33:23.070Z,260
2017-01-04T09:34:22.911Z,285
2017-01-04T09:35:22.978Z,310
2017-01-04T09:36:22.963Z,310
2017-01-04T09:37:23.010Z,290
2017-01-04T09:38:22.939Z,285
2017-01-04T09:39:22.962Z,305
2017-01-04T09:40:22.909Z,340
2017-01-04T09:41:22.932Z,385
2017-01-04T09:42:22.854Z,380
2017-01-04T09:43:23.077Z,345
2017-01-04T09:44:22.931Z,285
2017-01-04T09:45:22.936Z,255
2017-01-04T09:46:22.942Z,260
2017-01-04T09:47:22.980Z,280
2017-01-04T09:48:22.950Z,285
2017-01-04T09:49:23.019Z,290
2017-01-04T09:50:23.012Z,300
2017-01-04T09:51:22.921Z,300
2017-01-04T09:52:23.182Z,280
2017-01-04T09:53:23.781Z,230
2017-01-04T09:54:23.091Z,210
2017-01-04T09:55:23.676Z,165
2017-01-04T09:56:23.491Z,105
2017-01-04T09:57:23.579Z,100
2017-01-04T09:58:23.854Z,130
2017-01-04T09:59:23.721Z,190
2017-01-04T10:00:23.610Z,235
2017-01-04T10:01:23.335Z,330
2017-01-04T10:02:23.647Z,370
2017-01-04T10:03:22.970Z,345
2017-01-04T10:04:23.099Z,335
2017-01-04T10:05:23.005Z,385
2017-01-04T10:06:23.008Z,490
2017-01-04T10:07:22.953Z,460
2017-01-04T10:08:23.018Z,370
2017-01-04T10:09:23.024Z,320
2017-01-04T10:10:22.919Z,285
2017-01-04T10:11:23.002Z,270
2017-01-04T10:12:23.150Z,260
2017-01-04T10:13:23.078Z,240
2017-01-04T10:14:23.632Z,240
2017-01-04T10:15:22.999Z,230
2017-01-04T10:16:23.156Z,235
2017-01-04T10:17:22.929Z,245
2017-01-04T10:18:23.109Z,265
2017-01-04T10:23:40.914Z,245
2017-01-04T10:23:52.721Z,245
2017-01-04T10:24:52.646Z,265
2017-01-04T10:25:52.630Z,320
2017-01-04T10:26:52.662Z,345
2017-01-04T10:27:52.589Z,385
2017-01-04T10:28:52.699Z,420
2017-01-04T10:29:52.599Z,490
2017-01-04T10:30:52.669Z,345
2017-01-04T10:31:52.658Z,240
2017-01-04T10:32:52.527Z,175
2017-01-04T10:33:52.568Z,150
2017-01-04T10:34:52.598Z,160
2017-01-04T10:35:52.645Z,220
2017-01-04T10:36:52.730Z,355
2017-01-04T10:37:52.608Z,380
2017-01-04T10:38:52.608Z,375
2017-01-04T10:39:52.850Z,320
2017-01-04T10:40:52.677Z,290
2017-01-04T10:41:52.609Z,235
2017-01-04T10:42:52.512Z,205
2017-01-04T10:43:52.666Z,215
2017-01-04T10:44:52.708Z,200
2017-01-04T10:45:52.656Z,205
2017-01-04T10:46:52.613Z,205
2017-01-04T10:47:52.662Z,190
2017-01-04T10:48:52.732Z,200
2017-01-04T10:49:52.735Z,210
2017-01-04T10:50:52.696Z,220
2017-01-04T10:51:52.607Z,310
2017-01-04T10:52:52.759Z,365
2017-01-04T10:53:52.696Z,340
2017-01-04T10:54:52.588Z,295
2017-01-04T10:55:52.625Z,300
2017-01-04T10:56:52.805Z,250
2017-01-04T10:57:52.690Z,215
2017-01-04T10:58:52.730Z,190
2017-01-04T10:59:52.575Z,185
2017-01-04T11:00:52.795Z,340
2017-01-04T11:01:52.901Z,445
2017-01-04T11:02:52.696Z,460
2017-01-04T11:03:52.947Z,485
2017-01-04T11:04:52.655Z,520
2017-01-04T11:05:52.643Z,615
2017-01-04T11:06:52.636Z,765
2017-01-04T11:07:52.797Z,705
2017-01-04T11:08:52.702Z,390
2017-01-04T11:09:52.815Z,155
2017-01-04T11:10:52.834Z,170
2017-01-04T11:11:52.638Z,245
2017-01-04T11:12:52.951Z,275
2017-01-04T11:13:52.974Z,290
2017-01-04T11:14:52.835Z,325
2017-01-04T11:15:52.707Z,370
2017-01-04T11:16:52.712Z,315
2017-01-04T11:17:52.947Z,185
2017-01-04T11:18:52.824Z,170
2017-01-04T11:19:52.909Z,215
2017-01-04T11:20:52.663Z,250
2017-01-04T11:21:52.824Z,270
2017-01-04T11:22:52.605Z,245
2017-01-04T11:23:52.749Z,245
2017-01-04T11:24:52.736Z,255
2017-01-04T11:25:52.761Z,155
2017-01-04T11:26:52.830Z,120
2017-01-04T11:27:52.796Z,145
2017-01-04T11:28:52.773Z,245
2017-01-04T11:29:52.681Z,345
2017-01-04T11:30:52.863Z,500
2017-01-04T11:31:52.766Z,375
2017-01-04T11:32:52.812Z,470
2017-01-04T11:33:52.781Z,460
2017-01-04T11:34:52.777Z,415
2017-01-04T11:35:52.773Z,415
2017-01-04T11:36:52.822Z,490
2017-01-04T11:37:52.683Z,430
2017-01-04T11:38:52.761Z,420
2017-01-04T11:39:52.753Z,430
2017-01-04T11:40:52.711Z,435
2017-01-04T11:41:52.673Z,445
2017-01-04T11:42:52.810Z,495
2017-01-04T11:43:52.764Z,540
2017-01-04T11:44:52.687Z,580
2017-01-04T11:45:53.124Z,600
2017-01-04T11:46:52.805Z,690
2017-01-04T11:47:52.775Z,720
2017-01-04T11:48:52.811Z,605
2017-01-04T11:49:52.862Z,610
2017-01-04T11:50:52.878Z,765
2017-01-04T11:51:52.760Z,720
2017-01-04T11:52:52.723Z,545
2017-01-04T11:53:52.953Z,650
2017-01-04T11:54:52.692Z,770
2017-01-04T11:55:52.771Z,845
2017-01-04T11:56:52.854Z,595
2017-01-04T11:57:52.829Z,650
2017-01-04T11:58:52.810Z,635
2017-01-04T11:59:52.702Z,625
2017-01-04T12:00:52.719Z,575
2017-01-04T12:01:52.751Z,575
2017-01-04T12:02:52.759Z,690
2017-01-04T12:03:52.998Z,725
2017-01-04T12:04:52.926Z,820
2017-01-04T12:05:52.931Z,825
2017-01-04T12:06:52.743Z,830
2017-01-04T12:07:52.759Z,835
2017-01-04T12:08:52.813Z,765
2017-01-04T12:09:52.804Z,575
2017-01-04T12:10:52.815Z,545
2017-01-04T12:11:53.002Z,445
2017-01-04T12:12:52.721Z,345
2017-01-04T12:13:53.038Z,280
2017-01-04T12:14:52.792Z,380
2017-01-04T12:15:53.007Z,495
2017-01-04T12:16:52.780Z,255
2017-01-04T12:17:52.712Z,175
2017-01-04T12:18:52.740Z,190
2017-01-04T12:19:52.789Z,155
2017-01-04T12:20:52.866Z,135
2017-01-04T12:21:52.819Z,130
2017-01-04T12:22:52.868Z,145
2017-01-04T12:23:52.832Z,150
2017-01-04T12:24:52.862Z,145
2017-01-04T12:25:52.860Z,140
2017-01-04T12:26:52.631Z,130
2017-01-04T12:27:52.862Z,135
2017-01-04T12:28:52.756Z,125
2017-01-04T12:29:53.393Z,100
2017-01-04T12:30:52.820Z,85
2017-01-04T12:31:52.770Z,75
2017-01-04T12:32:52.838Z,70
2017-01-04T12:33:52.709Z,55
2017-01-04T12:34:52.812Z,65
2017-01-04T12:35:52.804Z,100
2017-01-04T12:36:52.813Z,135
2017-01-04T12:37:52.828Z,180
2017-01-04T12:38:52.902Z,265
2017-01-04T12:39:52.751Z,375
2017-01-04T12:40:52.762Z,470
2017-01-04T12:41:52.745Z,500
2017-01-04T12:42:52.734Z,470
2017-01-04T12:43:52.795Z,440
2017-01-04T12:44:52.880Z,360
2017-01-04T12:45:52.815Z,345
2017-01-04T12:46:52.846Z,390
2017-01-04T12:47:52.694Z,400
2017-01-04T12:48:52.824Z,405
2017-01-04T12:49:52.745Z,390
2017-01-04T12:50:52.783Z,380
2017-01-04T12:51:52.749Z,360
2017-01-04T12:52:53.593Z,330
2017-01-04T12:53:52.800Z,330
2017-01-04T12:59:10.076Z,345
2017-01-04T12:59:21.833Z,350
2017-01-04T13:00:21.778Z,335
2017-01-04T13:01:21.826Z,325
2017-01-04T13:02:21.755Z,320
2017-01-04T13:03:22.502Z,315
2017-01-04T13:04:24.105Z,310
2017-01-04T13:05:21.754Z,305
2017-01-04T13:06:21.746Z,300
2017-01-04T13:07:21.705Z,310
2017-01-04T13:08:21.827Z,280
2017-01-04T13:09:21.785Z,300
2017-01-04T13:10:21.728Z,290
2017-01-04T13:11:21.912Z,285
2017-01-04T13:12:23.233Z,295
2017-01-04T13:13:21.966Z,290
2017-01-04T13:14:21.741Z,285
2017-01-04T13:15:21.667Z,285
2017-01-04T13:16:22.147Z,290
2017-01-04T13:17:21.845Z,295
2017-01-04T13:18:21.727Z,295
2017-01-04T13:19:21.867Z,295
2017-01-04T13:20:21.778Z,295
2017-01-04T13:21:21.876Z,295
2017-01-04T13:22:21.760Z,290
2017-01-04T13:23:21.726Z,285
2017-01-04T13:24:21.797Z,290
2017-01-04T13:25:21.951Z,290
2017-01-04T13:26:21.913Z,295
2017-01-04T13:27:21.746Z,295
2017-01-04T13:28:21.877Z,295
2017-01-04T13:29:25.728Z,295
2017-01-04T13:30:21.885Z,290
2017-01-04T13:31:21.909Z,285
2017-01-04T13:32:21.862Z,290
2017-01-04T13:33:22.024Z,285
2017-01-04T13:34:22.470Z,285
2017-01-04T13:35:21.819Z,275
2017-01-04T13:36:22.328Z,280
2017-01-04T13:37:21.982Z,270
2017-01-04T13:38:21.865Z,270
2017-01-04T13:39:22.021Z,270
2017-01-04T13:40:21.987Z,265
2017-01-04T13:41:22.053Z,265
2017-01-04T13:42:21.859Z,265
2017-01-04T13:43:21.828Z,265
2017-01-04T13:44:21.919Z,260
2017-01-04T13:45:22.034Z,260
2017-01-04T13:46:31.884Z,260
2017-01-04T13:47:21.971Z,260
2017-01-04T13:48:22.006Z,250
2017-01-04T13:49:22.066Z,250
2017-01-04T13:50:21.830Z,245
2017-01-04T13:51:21.975Z,250
2017-01-04T13:52:21.836Z,235
2017-01-04T13:53:21.783Z,255
2017-01-04T13:54:21.881Z,330
2017-01-04T13:59:38.716Z,355
2017-01-04T13:59:50.421Z,205
2017-01-04T14:00:50.314Z,150
2017-01-04T14:01:50.367Z,100
2017-01-04T14:02:50.487Z,110
2017-01-04T14:03:50.422Z,115
2017-01-04T14:04:50.422Z,105
2017-01-04T14:05:50.450Z,115
2017-01-04T14:06:50.414Z,100
2017-01-04T14:07:50.409Z,95
2017-01-04T14:08:50.401Z,85
2017-01-04T14:09:50.468Z,75
2017-01-04T14:10:50.454Z,60
2017-01-04T14:11:50.492Z,55
2017-01-04T14:12:50.417Z,50
2017-01-04T14:13:50.515Z,55
2017-01-04T14:14:50.356Z,55
2017-01-04T14:15:50.373Z,45
2017-01-04T14:16:50.464Z,55
2017-01-04T14:17:50.440Z,50
2017-01-04T14:18:50.540Z,60
2017-01-04T14:19:50.567Z,60
2017-01-04T14:20:50.511Z,75
2017-01-04T14:21:50.418Z,85
2017-01-04T14:22:50.349Z,125
2017-01-04T14:23:50.412Z,150
2017-01-04T14:24:50.360Z,120
2017-01-04T14:25:50.432Z,105
2017-01-04T14:26:50.929Z,95
2017-01-04T14:27:50.463Z,120
2017-01-04T14:28:50.346Z,135
2017-01-04T14:29:50.539Z,155
2017-01-04T14:30:51.237Z,130
2017-01-04T14:31:50.457Z,120
2017-01-04T14:32:50.429Z,160
2017-01-04T14:33:50.499Z,175
2017-01-04T14:34:50.479Z,165
2017-01-04T14:35:51.264Z,145
2017-01-04T14:36:50.399Z,120
2017-01-04T14:37:50.661Z,115
2017-01-04T14:38:50.696Z,105
2017-01-04T14:39:50.474Z,95
2017-01-04T14:40:50.476Z,90
2017-01-04T14:41:50.473Z,85